ダカール の空港の天気 - METARとTAF

レオポール・セダール・サンゴール国際空港 ( GOOY / DKR ) - セネガル ダカール
飛行場実況気象(Metar)
観測時間04/27 04:00 GMT (04/27 04:00 UTC)
風向・風速北 4m/s
視程8000m
天気現象
なし
気温19℃
湿度100%
気圧1012hPa
METARGOOY 270400Z 36008KT 8000 NSC 19/19 Q1012 NOSIG
過去の天気等 Google飛行場航空写真 Wunderground天気予報

過去48時間のMETAR

飛行場予報(TAF)
発表時間: 4/26 23:30 GMT (4/26 23:30 UTC)
予報対象時間: 27日0時 GMT ~ 28日6時 GMT
風向・風速北 5m/s
視程10km以上
なし
TAF GOOY 262330Z 2700/2806 36010KT CAVOK